sensor_id;sensor_type;location;lat;lon;timestamp;P1;durP1;ratioP1;P2;durP2;ratioP2
36191;SDS011;22233;42.708;23.360;2023-11-21T00:01:55;51.10;;;28.55;;
36191;SDS011;22233;42.708;23.360;2023-11-21T00:04:22;48.93;;;31.63;;
36191;SDS011;22233;42.708;23.360;2023-11-21T00:06:48;48.13;;;31.92;;
36191;SDS011;22233;42.708;23.360;2023-11-21T00:09:14;56.17;;;32.22;;
36191;SDS011;22233;42.708;23.360;2023-11-21T00:11:43;53.13;;;33.05;;
36191;SDS011;22233;42.708;23.360;2023-11-21T00:14:11;63.20;;;35.45;;
36191;SDS011;22233;42.708;23.360;2023-11-21T00:16:36;52.15;;;33.60;;
36191;SDS011;22233;42.708;23.360;2023-11-21T00:19:02;58.30;;;35.95;;
36191;SDS011;22233;42.708;23.360;2023-11-21T00:21:27;64.55;;;38.30;;
36191;SDS011;22233;42.708;23.360;2023-11-21T00:23:52;60.47;;;37.90;;
36191;SDS011;22233;42.708;23.360;2023-11-21T00:26:18;61.60;;;37.20;;
36191;SDS011;22233;42.708;23.360;2023-11-21T00:28:43;71.95;;;39.72;;
36191;SDS011;22233;42.708;23.360;2023-11-21T00:31:09;58.40;;;36.20;;
36191;SDS011;22233;42.708;23.360;2023-11-21T00:33:34;60.30;;;35.42;;
36191;SDS011;22233;42.708;23.360;2023-11-21T00:35:59;53.92;;;34.35;;
36191;SDS011;22233;42.708;23.360;2023-11-21T00:38:25;55.03;;;33.70;;
36191;SDS011;22233;42.708;23.360;2023-11-21T00:40:52;52.63;;;32.10;;
36191;SDS011;22233;42.708;23.360;2023-11-21T00:43:21;53.88;;;32.45;;
36191;SDS011;22233;42.708;23.360;2023-11-21T00:45:47;52.50;;;31.45;;
36191;SDS011;22233;42.708;23.360;2023-11-21T00:48:14;39.55;;;25.17;;
36191;SDS011;22233;42.708;23.360;2023-11-21T00:50:40;45.67;;;28.13;;
36191;SDS011;22233;42.708;23.360;2023-11-21T00:53:05;47.53;;;29.83;;
36191;SDS011;22233;42.708;23.360;2023-11-21T00:55:32;55.30;;;34.47;;
36191;SDS011;22233;42.708;23.360;2023-11-21T00:57:58;53.35;;;32.47;;
36191;SDS011;22233;42.708;23.360;2023-11-21T01:00:23;49.50;;;30.92;;
36191;SDS011;22233;42.708;23.360;2023-11-21T01:02:49;47.33;;;30.73;;
36191;SDS011;22233;42.708;23.360;2023-11-21T01:05:14;50.08;;;29.92;;
36191;SDS011;22233;42.708;23.360;2023-11-21T01:07:39;45.78;;;28.08;;
36191;SDS011;22233;42.708;23.360;2023-11-21T01:10:05;45.13;;;28.23;;
36191;SDS011;22233;42.708;23.360;2023-11-21T01:12:33;39.60;;;25.48;;
36191;SDS011;22233;42.708;23.360;2023-11-21T01:14:59;42.50;;;26.23;;
36191;SDS011;22233;42.708;23.360;2023-11-21T01:17:25;39.95;;;25.08;;
36191;SDS011;22233;42.708;23.360;2023-11-21T01:19:52;41.17;;;24.20;;
36191;SDS011;22233;42.708;23.360;2023-11-21T01:22:17;34.33;;;23.35;;
36191;SDS011;22233;42.708;23.360;2023-11-21T01:24:45;38.17;;;23.95;;
36191;SDS011;22233;42.708;23.360;2023-11-21T01:27:10;33.00;;;23.45;;
36191;SDS011;22233;42.708;23.360;2023-11-21T01:29:35;39.67;;;26.08;;
36191;SDS011;22233;42.708;23.360;2023-11-21T01:32:02;36.95;;;24.20;;
36191;SDS011;22233;42.708;23.360;2023-11-21T01:34:28;30.13;;;20.90;;
36191;SDS011;22233;42.708;23.360;2023-11-21T01:36:53;33.70;;;22.05;;
36191;SDS011;22233;42.708;23.360;2023-11-21T01:39:19;39.35;;;21.50;;
36191;SDS011;22233;42.708;23.360;2023-11-21T01:41:48;34.28;;;21.33;;
36191;SDS011;22233;42.708;23.360;2023-11-21T01:44:15;30.90;;;21.13;;
36191;SDS011;22233;42.708;23.360;2023-11-21T01:46:42;28.90;;;20.38;;
36191;SDS011;22233;42.708;23.360;2023-11-21T01:49:07;30.75;;;19.42;;
36191;SDS011;22233;42.708;23.360;2023-11-21T01:51:34;34.50;;;20.98;;
36191;SDS011;22233;42.708;23.360;2023-11-21T01:54:01;31.73;;;20.45;;
36191;SDS011;22233;42.708;23.360;2023-11-21T01:56:30;29.83;;;19.90;;
36191;SDS011;22233;42.708;23.360;2023-11-21T01:58:56;32.27;;;20.53;;
36191;SDS011;22233;42.708;23.360;2023-11-21T02:01:22;29.30;;;19.40;;
36191;SDS011;22233;42.708;23.360;2023-11-21T02:03:47;28.15;;;17.95;;
36191;SDS011;22233;42.708;23.360;2023-11-21T02:06:13;27.65;;;18.80;;
36191;SDS011;22233;42.708;23.360;2023-11-21T02:08:38;30.98;;;18.25;;
36191;SDS011;22233;42.708;23.360;2023-11-21T02:11:04;25.00;;;16.52;;
36191;SDS011;22233;42.708;23.360;2023-11-21T02:13:30;28.92;;;18.95;;
36191;SDS011;22233;42.708;23.360;2023-11-21T02:15:56;25.52;;;16.50;;
36191;SDS011;22233;42.708;23.360;2023-11-21T02:18:23;27.15;;;17.60;;
36191;SDS011;22233;42.708;23.360;2023-11-21T02:20:48;25.83;;;16.95;;
36191;SDS011;22233;42.708;23.360;2023-11-21T02:23:14;30.65;;;17.15;;
36191;SDS011;22233;42.708;23.360;2023-11-21T02:25:39;19.35;;;13.57;;
36191;SDS011;22233;42.708;23.360;2023-11-21T02:28:07;19.70;;;14.30;;
36191;SDS011;22233;42.708;23.360;2023-11-21T02:30:33;27.30;;;17.50;;
36191;SDS011;22233;42.708;23.360;2023-11-21T02:32:59;25.85;;;16.25;;
36191;SDS011;22233;42.708;23.360;2023-11-21T02:35:27;25.27;;;16.52;;
36191;SDS011;22233;42.708;23.360;2023-11-21T02:37:53;25.00;;;16.23;;
36191;SDS011;22233;42.708;23.360;2023-11-21T02:40:19;28.05;;;17.95;;
36191;SDS011;22233;42.708;23.360;2023-11-21T02:42:49;27.50;;;16.25;;
36191;SDS011;22233;42.708;23.360;2023-11-21T02:45:21;26.27;;;16.50;;
36191;SDS011;22233;42.708;23.360;2023-11-21T02:47:46;24.90;;;15.90;;
36191;SDS011;22233;42.708;23.360;2023-11-21T02:50:14;26.05;;;15.57;;
36191;SDS011;22233;42.708;23.360;2023-11-21T02:52:39;23.83;;;15.65;;
36191;SDS011;22233;42.708;23.360;2023-11-21T02:55:05;25.65;;;16.80;;
36191;SDS011;22233;42.708;23.360;2023-11-21T02:57:32;24.30;;;16.25;;
36191;SDS011;22233;42.708;23.360;2023-11-21T02:59:58;24.02;;;16.33;;
36191;SDS011;22233;42.708;23.360;2023-11-21T03:02:24;23.35;;;15.23;;
36191;SDS011;22233;42.708;23.360;2023-11-21T03:04:50;23.17;;;15.25;;
36191;SDS011;22233;42.708;23.360;2023-11-21T03:07:16;22.77;;;14.68;;
36191;SDS011;22233;42.708;23.360;2023-11-21T03:09:44;25.17;;;15.45;;
36191;SDS011;22233;42.708;23.360;2023-11-21T03:12:10;23.65;;;15.50;;
36191;SDS011;22233;42.708;23.360;2023-11-21T03:14:37;19.52;;;14.40;;
36191;SDS011;22233;42.708;23.360;2023-11-21T03:17:02;21.45;;;14.85;;
36191;SDS011;22233;42.708;23.360;2023-11-21T03:19:29;27.92;;;14.98;;
36191;SDS011;22233;42.708;23.360;2023-11-21T03:21:55;24.48;;;14.20;;
36191;SDS011;22233;42.708;23.360;2023-11-21T03:24:20;21.80;;;13.25;;
36191;SDS011;22233;42.708;23.360;2023-11-21T03:26:47;23.90;;;13.63;;
36191;SDS011;22233;42.708;23.360;2023-11-21T03:29:13;20.48;;;12.10;;
36191;SDS011;22233;42.708;23.360;2023-11-21T03:31:39;18.48;;;12.43;;
36191;SDS011;22233;42.708;23.360;2023-11-21T03:34:05;18.92;;;13.15;;
36191;SDS011;22233;42.708;23.360;2023-11-21T03:36:31;18.55;;;12.32;;
36191;SDS011;22233;42.708;23.360;2023-11-21T03:38:57;18.88;;;11.90;;
36191;SDS011;22233;42.708;23.360;2023-11-21T03:41:22;20.13;;;12.57;;
36191;SDS011;22233;42.708;23.360;2023-11-21T03:43:47;15.35;;;11.18;;
36191;SDS011;22233;42.708;23.360;2023-11-21T03:46:13;15.52;;;11.60;;
36191;SDS011;22233;42.708;23.360;2023-11-21T03:48:38;17.48;;;11.82;;
36191;SDS011;22233;42.708;23.360;2023-11-21T03:51:04;16.98;;;11.98;;
36191;SDS011;22233;42.708;23.360;2023-11-21T03:53:30;18.60;;;11.88;;
36191;SDS011;22233;42.708;23.360;2023-11-21T03:55:55;17.08;;;12.27;;
36191;SDS011;22233;42.708;23.360;2023-11-21T03:58:20;20.08;;;12.52;;
36191;SDS011;22233;42.708;23.360;2023-11-21T04:00:46;16.08;;;11.63;;
36191;SDS011;22233;42.708;23.360;2023-11-21T04:03:14;18.45;;;11.82;;
36191;SDS011;22233;42.708;23.360;2023-11-21T04:05:40;19.90;;;13.25;;
36191;SDS011;22233;42.708;23.360;2023-11-21T04:08:06;20.88;;;13.63;;
36191;SDS011;22233;42.708;23.360;2023-11-21T04:10:31;23.23;;;14.77;;
36191;SDS011;22233;42.708;23.360;2023-11-21T04:12:57;24.90;;;16.80;;
36191;SDS011;22233;42.708;23.360;2023-11-21T04:15:23;26.25;;;18.23;;
36191;SDS011;22233;42.708;23.360;2023-11-21T04:17:48;28.02;;;18.05;;
36191;SDS011;22233;42.708;23.360;2023-11-21T04:20:14;27.02;;;18.52;;
36191;SDS011;22233;42.708;23.360;2023-11-21T04:22:39;27.70;;;18.02;;
36191;SDS011;22233;42.708;23.360;2023-11-21T04:25:07;28.30;;;17.90;;
36191;SDS011;22233;42.708;23.360;2023-11-21T04:27:36;25.77;;;16.80;;
36191;SDS011;22233;42.708;23.360;2023-11-21T04:30:04;27.63;;;19.40;;
36191;SDS011;22233;42.708;23.360;2023-11-21T04:32:30;28.33;;;18.38;;
36191;SDS011;22233;42.708;23.360;2023-11-21T04:34:55;23.15;;;16.42;;
36191;SDS011;22233;42.708;23.360;2023-11-21T04:37:21;22.63;;;15.68;;
36191;SDS011;22233;42.708;23.360;2023-11-21T04:39:46;21.65;;;15.23;;
36191;SDS011;22233;42.708;23.360;2023-11-21T04:42:11;24.20;;;16.65;;
36191;SDS011;22233;42.708;23.360;2023-11-21T04:44:37;29.48;;;17.10;;
36191;SDS011;22233;42.708;23.360;2023-11-21T04:47:05;22.60;;;15.88;;
36191;SDS011;22233;42.708;23.360;2023-11-21T04:49:31;22.88;;;15.82;;
36191;SDS011;22233;42.708;23.360;2023-11-21T04:51:56;23.30;;;15.18;;
36191;SDS011;22233;42.708;23.360;2023-11-21T04:54:22;21.05;;;15.50;;
36191;SDS011;22233;42.708;23.360;2023-11-21T04:56:47;22.20;;;16.30;;
36191;SDS011;22233;42.708;23.360;2023-11-21T04:59:12;24.23;;;16.45;;
36191;SDS011;22233;42.708;23.360;2023-11-21T05:01:38;27.55;;;16.35;;
36191;SDS011;22233;42.708;23.360;2023-11-21T05:04:04;25.80;;;16.25;;
36191;SDS011;22233;42.708;23.360;2023-11-21T05:06:31;27.85;;;17.90;;
36191;SDS011;22233;42.708;23.360;2023-11-21T05:08:56;24.55;;;18.00;;
36191;SDS011;22233;42.708;23.360;2023-11-21T05:11:25;25.77;;;16.17;;
36191;SDS011;22233;42.708;23.360;2023-11-21T05:13:50;27.15;;;17.05;;
36191;SDS011;22233;42.708;23.360;2023-11-21T05:16:16;23.38;;;14.90;;
36191;SDS011;22233;42.708;23.360;2023-11-21T05:18:41;23.40;;;15.38;;
36191;SDS011;22233;42.708;23.360;2023-11-21T05:21:07;19.20;;;15.15;;
36191;SDS011;22233;42.708;23.360;2023-11-21T05:23:32;24.00;;;15.27;;
36191;SDS011;22233;42.708;23.360;2023-11-21T05:25:58;21.33;;;15.15;;
36191;SDS011;22233;42.708;23.360;2023-11-21T05:28:24;24.77;;;16.55;;
36191;SDS011;22233;42.708;23.360;2023-11-21T05:30:50;30.25;;;16.67;;
36191;SDS011;22233;42.708;23.360;2023-11-21T05:33:15;28.38;;;17.25;;
36191;SDS011;22233;42.708;23.360;2023-11-21T05:35:41;23.65;;;17.48;;
36191;SDS011;22233;42.708;23.360;2023-11-21T05:38:06;25.80;;;18.38;;
36191;SDS011;22233;42.708;23.360;2023-11-21T05:40:32;26.05;;;17.08;;
36191;SDS011;22233;42.708;23.360;2023-11-21T05:42:57;27.45;;;17.73;;
36191;SDS011;22233;42.708;23.360;2023-11-21T05:45:23;27.98;;;18.45;;
36191;SDS011;22233;42.708;23.360;2023-11-21T05:47:49;29.88;;;18.80;;
36191;SDS011;22233;42.708;23.360;2023-11-21T05:50:15;31.85;;;19.58;;
36191;SDS011;22233;42.708;23.360;2023-11-21T05:52:41;28.90;;;18.55;;
36191;SDS011;22233;42.708;23.360;2023-11-21T05:55:08;26.17;;;17.92;;
36191;SDS011;22233;42.708;23.360;2023-11-21T05:57:34;24.58;;;16.60;;
36191;SDS011;22233;42.708;23.360;2023-11-21T06:00:02;21.33;;;14.63;;
36191;SDS011;22233;42.708;23.360;2023-11-21T06:02:36;22.52;;;15.68;;
36191;SDS011;22233;42.708;23.360;2023-11-21T06:05:08;25.38;;;16.70;;
36191;SDS011;22233;42.708;23.360;2023-11-21T06:07:35;21.60;;;15.60;;
36191;SDS011;22233;42.708;23.360;2023-11-21T06:10:01;25.42;;;16.48;;
36191;SDS011;22233;42.708;23.360;2023-11-21T06:12:30;20.52;;;15.25;;
36191;SDS011;22233;42.708;23.360;2023-11-21T06:14:56;23.65;;;16.67;;
36191;SDS011;22233;42.708;23.360;2023-11-21T06:17:21;29.70;;;19.40;;
36191;SDS011;22233;42.708;23.360;2023-11-21T06:19:49;26.33;;;18.38;;
36191;SDS011;22233;42.708;23.360;2023-11-21T06:22:15;32.65;;;19.95;;
36191;SDS011;22233;42.708;23.360;2023-11-21T06:24:40;25.08;;;17.85;;
36191;SDS011;22233;42.708;23.360;2023-11-21T06:27:07;28.52;;;18.30;;
36191;SDS011;22233;42.708;23.360;2023-11-21T06:29:33;30.67;;;21.30;;
36191;SDS011;22233;42.708;23.360;2023-11-21T06:31:58;29.33;;;19.10;;
36191;SDS011;22233;42.708;23.360;2023-11-21T06:34:24;29.33;;;21.35;;
36191;SDS011;22233;42.708;23.360;2023-11-21T06:36:49;29.33;;;21.20;;
36191;SDS011;22233;42.708;23.360;2023-11-21T06:39:15;30.83;;;20.90;;
36191;SDS011;22233;42.708;23.360;2023-11-21T06:41:42;30.35;;;20.42;;
36191;SDS011;22233;42.708;23.360;2023-11-21T06:44:08;31.20;;;22.35;;
36191;SDS011;22233;42.708;23.360;2023-11-21T06:46:33;33.10;;;23.42;;
36191;SDS011;22233;42.708;23.360;2023-11-21T06:48:59;39.17;;;24.10;;
36191;SDS011;22233;42.708;23.360;2023-11-21T06:51:24;37.83;;;22.92;;
36191;SDS011;22233;42.708;23.360;2023-11-21T06:53:50;39.17;;;24.25;;
36191;SDS011;22233;42.708;23.360;2023-11-21T06:56:16;35.22;;;23.02;;
36191;SDS011;22233;42.708;23.360;2023-11-21T06:58:42;35.70;;;21.13;;
36191;SDS011;22233;42.708;23.360;2023-11-21T07:01:10;35.90;;;21.02;;
36191;SDS011;22233;42.708;23.360;2023-11-21T07:03:36;34.60;;;21.50;;
36191;SDS011;22233;42.708;23.360;2023-11-21T07:06:02;30.30;;;19.58;;
36191;SDS011;22233;42.708;23.360;2023-11-21T07:08:28;34.55;;;20.15;;
36191;SDS011;22233;42.708;23.360;2023-11-21T07:10:53;29.05;;;20.00;;
36191;SDS011;22233;42.708;23.360;2023-11-21T07:13:19;31.25;;;21.63;;
36191;SDS011;22233;42.708;23.360;2023-11-21T07:15:44;29.55;;;20.77;;
36191;SDS011;22233;42.708;23.360;2023-11-21T07:18:10;31.48;;;20.02;;
36191;SDS011;22233;42.708;23.360;2023-11-21T07:20:36;28.60;;;20.90;;
36191;SDS011;22233;42.708;23.360;2023-11-21T07:23:02;32.65;;;22.42;;
36191;SDS011;22233;42.708;23.360;2023-11-21T07:25:28;31.53;;;20.43;;
36191;SDS011;22233;42.708;23.360;2023-11-21T07:27:54;34.10;;;21.80;;
36191;SDS011;22233;42.708;23.360;2023-11-21T07:30:20;28.58;;;21.48;;
36191;SDS011;22233;42.708;23.360;2023-11-21T07:32:47;36.95;;;22.83;;
36191;SDS011;22233;42.708;23.360;2023-11-21T07:35:13;30.73;;;21.40;;
36191;SDS011;22233;42.708;23.360;2023-11-21T07:37:38;29.33;;;20.55;;
36191;SDS011;22233;42.708;23.360;2023-11-21T07:40:04;41.60;;;27.38;;
36191;SDS011;22233;42.708;23.360;2023-11-21T07:42:30;34.40;;;25.48;;
36191;SDS011;22233;42.708;23.360;2023-11-21T07:44:55;38.75;;;24.25;;
36191;SDS011;22233;42.708;23.360;2023-11-21T07:47:21;41.78;;;25.05;;
36191;SDS011;22233;42.708;23.360;2023-11-21T07:49:47;43.30;;;27.58;;
36191;SDS011;22233;42.708;23.360;2023-11-21T07:52:13;41.00;;;27.40;;
36191;SDS011;22233;42.708;23.360;2023-11-21T07:54:41;48.47;;;30.42;;
36191;SDS011;22233;42.708;23.360;2023-11-21T07:57:06;49.40;;;34.28;;
36191;SDS011;22233;42.708;23.360;2023-11-21T07:59:32;49.83;;;32.10;;
36191;SDS011;22233;42.708;23.360;2023-11-21T08:01:58;48.55;;;31.90;;
36191;SDS011;22233;42.708;23.360;2023-11-21T08:04:23;48.17;;;29.45;;
36191;SDS011;22233;42.708;23.360;2023-11-21T08:06:48;47.92;;;31.27;;
36191;SDS011;22233;42.708;23.360;2023-11-21T08:09:14;49.03;;;31.20;;
36191;SDS011;22233;42.708;23.360;2023-11-21T08:11:40;52.05;;;33.42;;
36191;SDS011;22233;42.708;23.360;2023-11-21T08:14:06;49.80;;;33.72;;
36191;SDS011;22233;42.708;23.360;2023-11-21T08:16:31;49.20;;;30.92;;
36191;SDS011;22233;42.708;23.360;2023-11-21T08:18:57;45.53;;;29.45;;
36191;SDS011;22233;42.708;23.360;2023-11-21T08:21:22;42.88;;;30.35;;
36191;SDS011;22233;42.708;23.360;2023-11-21T08:23:53;45.13;;;29.83;;
36191;SDS011;22233;42.708;23.360;2023-11-21T08:26:20;51.47;;;30.13;;
36191;SDS011;22233;42.708;23.360;2023-11-21T08:28:49;50.92;;;33.42;;
36191;SDS011;22233;42.708;23.360;2023-11-21T08:31:14;47.72;;;31.48;;
36191;SDS011;22233;42.708;23.360;2023-11-21T08:33:40;48.15;;;31.02;;
36191;SDS011;22233;42.708;23.360;2023-11-21T08:36:06;42.05;;;30.15;;
36191;SDS011;22233;42.708;23.360;2023-11-21T08:38:36;44.20;;;29.73;;
36191;SDS011;22233;42.708;23.360;2023-11-21T08:41:04;47.13;;;33.13;;
36191;SDS011;22233;42.708;23.360;2023-11-21T08:43:32;43.00;;;32.35;;
36191;SDS011;22233;42.708;23.360;2023-11-21T08:46:04;38.90;;;27.05;;
36191;SDS011;22233;42.708;23.360;2023-11-21T08:48:30;43.05;;;27.65;;
36191;SDS011;22233;42.708;23.360;2023-11-21T08:50:56;38.92;;;26.40;;
36191;SDS011;22233;42.708;23.360;2023-11-21T08:53:21;33.67;;;24.13;;
36191;SDS011;22233;42.708;23.360;2023-11-21T08:55:47;32.78;;;23.05;;
36191;SDS011;22233;42.708;23.360;2023-11-21T08:58:13;34.67;;;24.15;;
36191;SDS011;22233;42.708;23.360;2023-11-21T09:00:39;39.67;;;25.00;;
36191;SDS011;22233;42.708;23.360;2023-11-21T09:03:05;39.78;;;25.50;;
36191;SDS011;22233;42.708;23.360;2023-11-21T09:05:33;36.33;;;24.33;;
36191;SDS011;22233;42.708;23.360;2023-11-21T09:07:59;34.67;;;23.67;;
36191;SDS011;22233;42.708;23.360;2023-11-21T09:10:25;30.23;;;21.90;;
36191;SDS011;22233;42.708;23.360;2023-11-21T09:12:50;36.92;;;24.35;;
36191;SDS011;22233;42.708;23.360;2023-11-21T09:15:17;40.25;;;21.27;;
36191;SDS011;22233;42.708;23.360;2023-11-21T09:17:42;31.48;;;21.95;;
36191;SDS011;22233;42.708;23.360;2023-11-21T09:20:09;25.33;;;19.70;;
36191;SDS011;22233;42.708;23.360;2023-11-21T09:22:35;24.48;;;21.05;;
36191;SDS011;22233;42.708;23.360;2023-11-21T09:25:01;27.70;;;19.77;;
36191;SDS011;22233;42.708;23.360;2023-11-21T09:27:30;28.10;;;20.23;;
36191;SDS011;22233;42.708;23.360;2023-11-21T09:29:56;28.33;;;19.00;;
36191;SDS011;22233;42.708;23.360;2023-11-21T09:32:23;25.60;;;18.55;;
36191;SDS011;22233;42.708;23.360;2023-11-21T09:34:48;29.90;;;20.40;;
36191;SDS011;22233;42.708;23.360;2023-11-21T09:37:15;30.20;;;21.45;;
36191;SDS011;22233;42.708;23.360;2023-11-21T09:39:41;38.10;;;23.70;;
36191;SDS011;22233;42.708;23.360;2023-11-21T09:44:46;35.35;;;22.80;;
36191;SDS011;22233;42.708;23.360;2023-11-21T09:47:21;33.22;;;23.83;;
36191;SDS011;22233;42.708;23.360;2023-11-21T09:49:47;35.50;;;24.65;;
36191;SDS011;22233;42.708;23.360;2023-11-21T09:52:32;34.90;;;22.70;;
36191;SDS011;22233;42.708;23.360;2023-11-21T09:55:09;31.40;;;19.35;;
36191;SDS011;22233;42.708;23.360;2023-11-21T09:57:38;23.55;;;15.15;;
36191;SDS011;22233;42.708;23.360;2023-11-21T10:00:04;20.65;;;14.95;;
36191;SDS011;22233;42.708;23.360;2023-11-21T10:02:31;22.92;;;15.32;;
36191;SDS011;22233;42.708;23.360;2023-11-21T10:05:01;21.05;;;14.43;;
36191;SDS011;22233;42.708;23.360;2023-11-21T10:07:28;19.10;;;13.80;;
36191;SDS011;22233;42.708;23.360;2023-11-21T10:09:59;22.75;;;16.80;;
36191;SDS011;22233;42.708;23.360;2023-11-21T10:12:26;24.15;;;15.93;;
36191;SDS011;22233;42.708;23.360;2023-11-21T10:14:53;22.90;;;15.57;;
36191;SDS011;22233;42.708;23.360;2023-11-21T10:17:23;25.25;;;15.75;;
36191;SDS011;22233;42.708;23.360;2023-11-21T10:19:51;23.98;;;17.25;;
36191;SDS011;22233;42.708;23.360;2023-11-21T10:22:18;21.77;;;14.73;;
36191;SDS011;22233;42.708;23.360;2023-11-21T10:24:45;21.65;;;16.27;;
36191;SDS011;22233;42.708;23.360;2023-11-21T10:27:11;28.27;;;15.02;;
36191;SDS011;22233;42.708;23.360;2023-11-21T10:29:38;20.37;;;13.57;;
36191;SDS011;22233;42.708;23.360;2023-11-21T10:32:04;18.83;;;13.50;;
36191;SDS011;22233;42.708;23.360;2023-11-21T10:34:30;23.52;;;14.82;;
36191;SDS011;22233;42.708;23.360;2023-11-21T10:36:56;18.77;;;15.07;;
36191;SDS011;22233;42.708;23.360;2023-11-21T10:39:23;21.00;;;15.63;;
36191;SDS011;22233;42.708;23.360;2023-11-21T10:41:52;20.38;;;14.93;;
36191;SDS011;22233;42.708;23.360;2023-11-21T10:44:18;21.02;;;14.52;;
36191;SDS011;22233;42.708;23.360;2023-11-21T10:49:19;17.52;;;13.98;;
36191;SDS011;22233;42.708;23.360;2023-11-21T10:51:45;23.27;;;15.63;;
36191;SDS011;22233;42.708;23.360;2023-11-21T10:54:11;20.25;;;15.35;;
36191;SDS011;22233;42.708;23.360;2023-11-21T10:56:38;21.33;;;16.13;;
36191;SDS011;22233;42.708;23.360;2023-11-21T10:59:07;26.13;;;15.98;;
36191;SDS011;22233;42.708;23.360;2023-11-21T11:01:40;23.30;;;15.70;;
36191;SDS011;22233;42.708;23.360;2023-11-21T11:04:10;24.95;;;16.20;;
36191;SDS011;22233;42.708;23.360;2023-11-21T11:06:45;24.85;;;15.20;;
36191;SDS011;22233;42.708;23.360;2023-11-21T11:09:16;21.85;;;16.02;;
36191;SDS011;22233;42.708;23.360;2023-11-21T11:11:42;19.60;;;14.20;;
36191;SDS011;22233;42.708;23.360;2023-11-21T11:14:12;19.55;;;14.73;;
36191;SDS011;22233;42.708;23.360;2023-11-21T11:16:39;17.15;;;12.45;;
36191;SDS011;22233;42.708;23.360;2023-11-21T11:19:09;18.88;;;12.82;;
36191;SDS011;22233;42.708;23.360;2023-11-21T11:27:30;20.02;;;13.95;;
36191;SDS011;22233;42.708;23.360;2023-11-21T11:38:18;17.20;;;13.57;;
36191;SDS011;22233;42.708;23.360;2023-11-21T11:40:47;18.88;;;13.10;;
36191;SDS011;22233;42.708;23.360;2023-11-21T11:43:13;19.90;;;13.02;;
36191;SDS011;22233;42.708;23.360;2023-11-21T11:45:38;17.15;;;12.60;;
36191;SDS011;22233;42.708;23.360;2023-11-21T11:48:07;17.38;;;12.02;;
36191;SDS011;22233;42.708;23.360;2023-11-21T11:50:41;17.50;;;12.20;;
36191;SDS011;22233;42.708;23.360;2023-11-21T11:53:14;14.82;;;11.93;;
36191;SDS011;22233;42.708;23.360;2023-11-21T11:55:40;18.73;;;14.68;;
36191;SDS011;22233;42.708;23.360;2023-11-21T11:58:06;18.98;;;13.75;;
36191;SDS011;22233;42.708;23.360;2023-11-21T12:02:59;32.92;;;18.65;;
36191;SDS011;22233;42.708;23.360;2023-11-21T12:05:28;29.27;;;17.85;;
36191;SDS011;22233;42.708;23.360;2023-11-21T12:08:03;24.42;;;16.88;;
36191;SDS011;22233;42.708;23.360;2023-11-21T12:10:30;24.55;;;17.80;;
36191;SDS011;22233;42.708;23.360;2023-11-21T12:15:23;28.97;;;20.77;;
36191;SDS011;22233;42.708;23.360;2023-11-21T12:17:50;31.40;;;22.33;;
36191;SDS011;22233;42.708;23.360;2023-11-21T12:20:20;31.42;;;22.58;;
36191;SDS011;22233;42.708;23.360;2023-11-21T12:22:47;42.55;;;25.35;;
36191;SDS011;22233;42.708;23.360;2023-11-21T12:25:20;42.50;;;24.85;;
36191;SDS011;22233;42.708;23.360;2023-11-21T12:27:53;39.55;;;23.30;;
36191;SDS011;22233;42.708;23.360;2023-11-21T12:30:20;39.22;;;22.77;;
36191;SDS011;22233;42.708;23.360;2023-11-21T12:35:16;28.95;;;18.35;;
36191;SDS011;22233;42.708;23.360;2023-11-21T12:37:44;27.20;;;18.88;;
36191;SDS011;22233;42.708;23.360;2023-11-21T12:40:10;28.05;;;20.35;;
36191;SDS011;22233;42.708;23.360;2023-11-21T12:42:40;27.42;;;20.13;;
36191;SDS011;22233;42.708;23.360;2023-11-21T12:47:45;29.48;;;19.38;;
36191;SDS011;22233;42.708;23.360;2023-11-21T12:50:36;30.42;;;21.20;;
36191;SDS011;22233;42.708;23.360;2023-11-21T12:55:35;29.77;;;19.75;;
36191;SDS011;22233;42.708;23.360;2023-11-21T12:58:04;24.45;;;18.90;;
36191;SDS011;22233;42.708;23.360;2023-11-21T13:00:35;22.60;;;16.65;;
36191;SDS011;22233;42.708;23.360;2023-11-21T13:03:11;22.73;;;15.85;;
36191;SDS011;22233;42.708;23.360;2023-11-21T13:05:42;17.73;;;12.40;;
36191;SDS011;22233;42.708;23.360;2023-11-21T13:08:12;19.08;;;12.60;;
36191;SDS011;22233;42.708;23.360;2023-11-21T13:10:39;18.50;;;13.68;;
36191;SDS011;22233;42.708;23.360;2023-11-21T13:13:08;23.70;;;13.27;;
36191;SDS011;22233;42.708;23.360;2023-11-21T13:15:35;28.70;;;13.37;;
36191;SDS011;22233;42.708;23.360;2023-11-21T13:18:05;19.73;;;13.05;;
36191;SDS011;22233;42.708;23.360;2023-11-21T13:20:32;21.98;;;14.65;;
36191;SDS011;22233;42.708;23.360;2023-11-21T13:22:58;21.83;;;14.05;;
36191;SDS011;22233;42.708;23.360;2023-11-21T13:25:24;21.98;;;13.98;;
36191;SDS011;22233;42.708;23.360;2023-11-21T13:27:53;20.42;;;14.85;;
36191;SDS011;22233;42.708;23.360;2023-11-21T13:30:19;22.00;;;14.15;;
36191;SDS011;22233;42.708;23.360;2023-11-21T13:32:52;20.65;;;14.18;;
36191;SDS011;22233;42.708;23.360;2023-11-21T13:35:22;19.92;;;14.18;;
36191;SDS011;22233;42.708;23.360;2023-11-21T13:40:30;20.15;;;13.43;;
36191;SDS011;22233;42.708;23.360;2023-11-21T13:42:55;17.63;;;13.88;;
36191;SDS011;22233;42.708;23.360;2023-11-21T13:45:24;20.42;;;15.13;;
36191;SDS011;22233;42.708;23.360;2023-11-21T13:47:51;23.00;;;15.95;;
36191;SDS011;22233;42.708;23.360;2023-11-21T13:50:19;25.48;;;15.27;;
36191;SDS011;22233;42.708;23.360;2023-11-21T13:52:51;24.60;;;16.50;;
36191;SDS011;22233;42.708;23.360;2023-11-21T13:55:18;24.67;;;17.42;;
36191;SDS011;22233;42.708;23.360;2023-11-21T13:57:44;24.02;;;19.38;;
36191;SDS011;22233;42.708;23.360;2023-11-21T14:00:12;26.75;;;17.83;;
36191;SDS011;22233;42.708;23.360;2023-11-21T14:02:58;24.92;;;17.92;;
36191;SDS011;22233;42.708;23.360;2023-11-21T14:05:27;26.45;;;18.85;;
36191;SDS011;22233;42.708;23.360;2023-11-21T14:07:58;26.80;;;19.17;;
36191;SDS011;22233;42.708;23.360;2023-11-21T14:10:30;24.58;;;19.45;;
36191;SDS011;22233;42.708;23.360;2023-11-21T14:15:35;28.38;;;18.95;;
36191;SDS011;22233;42.708;23.360;2023-11-21T14:18:07;29.08;;;20.77;;
36191;SDS011;22233;42.708;23.360;2023-11-21T14:20:35;27.27;;;20.15;;
36191;SDS011;22233;42.708;23.360;2023-11-21T14:23:02;27.80;;;20.88;;
36191;SDS011;22233;42.708;23.360;2023-11-21T14:25:34;31.98;;;21.38;;
36191;SDS011;22233;42.708;23.360;2023-11-21T14:28:01;28.35;;;20.75;;
36191;SDS011;22233;42.708;23.360;2023-11-21T14:30:28;29.05;;;19.98;;
36191;SDS011;22233;42.708;23.360;2023-11-21T14:32:57;27.30;;;20.02;;
36191;SDS011;22233;42.708;23.360;2023-11-21T14:35:23;26.13;;;21.90;;
36191;SDS011;22233;42.708;23.360;2023-11-21T14:37:48;30.77;;;21.08;;
36191;SDS011;22233;42.708;23.360;2023-11-21T14:40:14;25.75;;;20.90;;
36191;SDS011;22233;42.708;23.360;2023-11-21T14:42:41;32.70;;;22.15;;
36191;SDS011;22233;42.708;23.360;2023-11-21T14:45:08;28.90;;;21.88;;